Time;durP1;ratioP1;P1;durP2;ratioP2;P2;SDS_P1;SDS_P2;PMS_P1;PMS_P2;Temp;Humidity;BMP_temperature;BMP_pressure;BME280_temperature;BME280_humidity;BME280_pressure;Samples;Min_cycle;Max_cycle;Signal;HPM_P1;HPM_P2
2022/11/17 00:00:40;;;;;;;85.72;43.15;;;;;;;3.11;79.23;99889.83;1753148;81;25827;-61
2022/11/17 00:03:18;;;;;;;91.12;45.08;;;;;;;3.06;79.18;99890.62;1753324;81;25704;-63
2022/11/17 00:05:44;;;;;;;82.00;40.88;;;;;;;3.06;79.22;99886.17;1753303;80;25866;-61
2022/11/17 00:08:10;;;;;;;83.42;41.55;;;;;;;3.07;79.31;99883.02;1753403;81;25696;-61
2022/11/17 00:10:37;;;;;;;80.60;41.08;;;;;;;3.03;79.30;99870.44;1753180;81;27201;-63
2022/11/17 00:15:49;;;;;;;90.17;42.03;;;;;;;2.94;80.25;99869.31;1737294;81;25816;-63
2022/11/17 00:21:19;;;;;;;85.83;41.10;;;;;;;2.83;79.81;99861.24;1741674;81;25499;-62
2022/11/17 00:23:48;;;;;;;83.97;41.45;;;;;;;2.80;79.92;99849.03;1716826;83;27475;-62
2022/11/17 00:26:19;;;;;;;89.55;41.88;;;;;;;2.73;80.06;99847.78;1716367;82;25716;-62
2022/11/17 00:28:46;;;;;;;88.92;41.00;;;;;;;2.70;80.38;99857.28;1686858;83;25775;-62
2022/11/17 00:34:06;;;;;;;92.00;40.92;;;;;;;2.79;80.41;99850.45;1735378;81;25842;-62
2022/11/17 00:36:39;;;;;;;85.95;41.45;;;;;;;2.85;80.96;99847.84;1726974;83;27501;-62
2022/11/17 00:39:08;;;;;;;92.15;41.33;;;;;;;2.91;81.06;99851.41;1727118;83;25736;-62
2022/11/17 00:41:35;;;;;;;81.10;38.60;;;;;;;2.94;81.03;99860.01;1728034;82;25920;-62
2022/11/17 00:44:02;;;;;;;81.80;39.63;;;;;;;2.98;81.04;99850.84;1701528;84;26452;-62
2022/11/17 00:46:30;;;;;;;82.45;39.33;;;;;;;3.04;81.07;99843.41;1732155;82;27367;-62
2022/11/17 00:48:57;;;;;;;86.47;38.13;;;;;;;3.12;81.33;99853.00;1701571;84;27445;-62
2022/11/17 00:51:24;;;;;;;84.87;37.05;;;;;;;3.18;81.23;99856.53;1732262;82;25771;-62
2022/11/17 00:53:52;;;;;;;86.75;38.17;;;;;;;3.19;81.03;99862.22;1699998;84;25801;-62
2022/11/17 00:56:19;;;;;;;86.80;37.38;;;;;;;3.22;81.09;99865.13;1698330;84;25784;-62
2022/11/17 00:58:45;;;;;;;88.35;38.15;;;;;;;3.34;81.58;99874.02;1728816;83;25812;-62
2022/11/17 01:01:13;;;;;;;96.50;40.83;;;;;;;3.42;81.45;99877.83;1729039;82;29621;-62
2022/11/17 01:03:40;;;;;;;92.53;38.92;;;;;;;3.52;81.64;99881.98;1728972;83;26131;-62
2022/11/17 01:06:12;;;;;;;91.02;38.20;;;;;;;3.65;81.75;99874.44;1729075;82;25605;-62
2022/11/17 01:08:39;;;;;;;102.10;40.92;;;;;;;3.76;81.75;99870.01;1727364;83;25773;-62
2022/11/17 01:11:18;;;;;;;92.33;39.50;;;;;;;3.85;81.53;99853.85;1729425;83;25751;-62
2022/11/17 01:13:47;;;;;;;103.90;41.55;;;;;;;3.90;81.09;99857.47;1728772;83;27483;-62
2022/11/17 01:16:17;;;;;;;99.92;39.78;;;;;;;3.92;81.06;99862.20;1729141;83;25809;-62
2022/11/17 01:18:46;;;;;;;95.45;40.83;;;;;;;3.99;81.26;99855.44;1740686;81;25466;-62
2022/11/17 01:21:17;;;;;;;97.50;41.50;;;;;;;4.03;80.97;99872.05;1730592;81;26804;-62
2022/11/17 01:23:46;;;;;;;91.15;39.03;;;;;;;4.04;80.84;99863.94;1721423;83;25830;-62
2022/11/17 01:26:20;;;;;;;95.60;39.73;;;;;;;4.09;80.85;99882.22;1721775;83;27445;-62
2022/11/17 01:28:47;;;;;;;91.00;38.63;;;;;;;4.12;80.73;99887.79;1721147;83;25533;-62
2022/11/17 01:31:19;;;;;;;88.85;39.33;;;;;;;4.10;80.59;99879.93;1721721;83;25631;-62
2022/11/17 01:33:47;;;;;;;92.67;41.85;;;;;;;4.10;80.60;99871.08;1720810;83;25794;-62
2022/11/17 01:36:28;;;;;;;84.65;39.50;;;;;;;4.10;80.46;99872.41;1721564;83;25769;-62
2022/11/17 01:38:55;;;;;;;96.10;43.40;;;;;;;4.08;80.48;99858.73;1720768;83;27703;-62
2022/11/17 01:41:26;;;;;;;107.20;45.73;;;;;;;4.04;80.00;99853.76;1721367;83;27239;-62
2022/11/17 01:43:57;;;;;;;107.35;48.13;;;;;;;3.97;80.07;99848.08;1704197;82;25821;-62
2022/11/17 01:46:37;;;;;;;103.80;44.85;;;;;;;3.96;80.17;99850.84;1703240;84;26752;-62
2022/11/17 01:49:18;;;;;;;109.67;45.28;;;;;;;3.91;79.96;99852.52;1702785;84;25715;-62
2022/11/17 01:51:49;;;;;;;111.97;47.33;;;;;;;3.84;79.74;99849.95;1702959;84;27488;-62
2022/11/17 01:54:20;;;;;;;110.52;48.58;;;;;;;3.80;79.99;99848.50;1706636;84;26162;-62
2022/11/17 01:56:51;;;;;;;115.77;48.98;;;;;;;3.79;80.15;99847.64;1709026;82;25893;-62
2022/11/17 01:59:26;;;;;;;98.50;45.55;;;;;;;3.79;80.05;99848.97;1708495;82;25891;-62
2022/11/17 02:01:54;;;;;;;103.25;45.12;;;;;;;3.78;80.06;99841.95;1708225;83;26009;-62
2022/11/17 02:04:35;;;;;;;97.72;44.85;;;;;;;3.81;80.16;99842.22;1708631;82;28191;-62
2022/11/17 02:07:26;;;;;;;98.75;46.53;;;;;;;3.80;80.14;99839.20;1709500;81;25885;-62
2022/11/17 02:09:55;;;;;;;101.72;47.75;;;;;;;3.83;80.27;99833.63;1708684;83;25739;-62
2022/11/17 02:12:26;;;;;;;101.72;45.35;;;;;;;3.77;79.99;99834.92;1708514;83;43981;-62
2022/11/17 02:14:54;;;;;;;102.25;47.00;;;;;;;3.77;80.25;99833.59;1708596;83;25710;-62
2022/11/17 02:17:25;;;;;;;92.35;44.63;;;;;;;3.78;80.47;99822.00;1709032;83;27363;-62
2022/11/17 02:20:00;;;;;;;86.17;41.45;;;;;;;3.81;80.40;99818.28;1702760;82;25743;-62
2022/11/17 02:22:48;;;;;;;81.20;42.75;;;;;;;3.84;80.47;99825.55;1675547;84;25786;-62
2022/11/17 02:25:58;;;;;;;87.60;42.00;;;;;;;3.89;80.63;99830.52;1679474;84;26451;-62
2022/11/17 02:28:33;;;;;;;79.58;40.95;;;;;;;3.95;80.78;99831.38;1679208;84;25731;-62
2022/11/17 02:31:31;;;;;;;77.35;39.85;;;;;;;3.96;80.17;99829.08;1679387;85;27537;-62
2022/11/17 02:34:22;;;;;;;84.52;39.23;;;;;;;3.93;80.06;99830.63;1679256;85;25764;-62
2022/11/17 02:37:03;;;;;;;87.08;39.38;;;;;;;3.97;80.52;99830.78;1679419;84;25708;-62
2022/11/17 02:39:51;;;;;;;84.80;38.92;;;;;;;3.89;80.79;99818.55;1679061;85;25680;-63
2022/11/17 02:44:02;;;;;;;87.53;39.10;;;;;;;3.83;81.07;99822.52;1687121;83;25456;-62
2022/11/17 02:44:59;;;;;;;93.55;40.95;;;;;;;3.86;81.29;99829.41;1692193;83;27515;-62
2022/11/17 02:47:30;;;;;;;92.60;39.92;;;;;;;3.93;81.40;99833.30;1725622;83;25855;-62
2022/11/17 02:50:07;;;;;;;93.52;39.48;;;;;;;3.96;82.32;99830.41;1725526;83;25812;-62
2022/11/17 02:52:33;;;;;;;91.97;41.15;;;;;;;3.96;82.07;99833.53;1726062;83;25779;-62
2022/11/17 02:55:04;;;;;;;88.87;37.85;;;;;;;3.99;82.03;99818.68;1777874;80;25782;-62
2022/11/17 02:57:35;;;;;;;99.50;40.35;;;;;;;4.04;83.17;99818.70;1751811;81;28178;-62
2022/11/17 03:00:09;;;;;;;90.53;37.58;;;;;;;4.03;83.38;99822.81;1767267;81;25791;-62
2022/11/17 03:03:31;;;;;;;93.80;38.38;;;;;;;4.05;83.21;99818.20;1767788;81;25726;-63
2022/11/17 03:06:17;;;;;;;88.82;39.63;;;;;;;4.11;83.18;99824.87;1767699;81;25870;-63
2022/11/17 03:09:04;;;;;;;85.35;38.92;;;;;;;4.20;83.26;99821.03;1767513;81;25702;-62
2022/11/17 03:11:51;;;;;;;87.90;38.67;;;;;;;4.22;83.46;99808.92;1767119;81;28424;-63
2022/11/17 03:14:44;;;;;;;95.00;40.25;;;;;;;4.21;83.41;99801.41;1713111;82;25874;-62
2022/11/17 03:17:21;;;;;;;89.35;39.45;;;;;;;4.28;83.67;99805.77;1751685;81;25727;-63
2022/11/17 03:20:03;;;;;;;83.52;38.88;;;;;;;4.35;83.57;99800.33;1744604;81;26782;-62
2022/11/17 03:22:43;;;;;;;89.77;37.10;;;;;;;4.43;83.65;99794.91;1770054;80;25726;-62
2022/11/17 03:25:15;;;;;;;82.27;36.95;;;;;;;4.47;83.64;99781.70;1753313;80;29694;-62
2022/11/17 03:27:47;;;;;;;90.05;39.85;;;;;;;4.47;83.26;99782.56;1755282;81;25448;-62
2022/11/17 03:30:16;;;;;;;94.22;40.33;;;;;;;4.48;83.50;99782.06;1755118;81;25756;-62
2022/11/17 03:32:48;;;;;;;99.32;40.65;;;;;;;4.47;83.35;99784.36;1755353;81;25827;-62
2022/11/17 03:35:20;;;;;;;99.97;40.05;;;;;;;4.51;83.59;99784.50;1755042;81;25781;-62
2022/11/17 03:37:52;;;;;;;92.80;39.18;;;;;;;4.53;83.60;99785.20;1754090;81;27646;-62
2022/11/17 03:40:24;;;;;;;87.12;36.73;;;;;;;4.53;83.59;99778.08;1754913;81;25820;-62
2022/11/17 03:42:55;;;;;;;93.35;39.03;;;;;;;4.53;83.65;99775.88;1750603;81;26541;-62
2022/11/17 03:45:34;;;;;;;97.90;40.67;;;;;;;4.53;83.66;99775.88;1699047;84;25849;-62
2022/11/17 03:48:25;;;;;;;96.02;38.73;;;;;;;4.54;83.70;99781.57;1729282;82;25904;-62
2022/11/17 03:51:07;;;;;;;91.37;39.30;;;;;;;4.55;84.03;99771.28;1729638;82;27458;-62
2022/11/17 03:53:35;;;;;;;84.83;36.23;;;;;;;4.56;84.13;99772.98;1740233;81;25828;-62
2022/11/17 03:56:11;;;;;;;87.65;39.13;;;;;;;4.62;84.16;99779.14;1760153;81;25765;-63
2022/11/17 03:58:43;;;;;;;87.35;37.75;;;;;;;4.68;84.27;99780.47;1759758;81;25781;-63
2022/11/17 04:01:11;;;;;;;81.57;35.55;;;;;;;4.75;84.49;99784.83;1759878;81;25782;-61
2022/11/17 04:03:39;;;;;;;80.38;35.75;;;;;;;4.79;84.14;99788.96;1760145;81;27675;-61
2022/11/17 04:06:06;;;;;;;84.52;37.35;;;;;;;4.81;83.93;99789.19;1759762;81;25716;-62
2022/11/17 04:08:33;;;;;;;86.55;38.60;;;;;;;4.83;83.96;99792.59;1760140;81;25529;-62
2022/11/17 04:16:30;;;;;;;88.00;35.85;;;;;;;4.91;83.85;99791.12;1760255;81;27853;-62
2022/11/17 04:18:58;;;;;;;84.05;36.00;;;;;;;4.85;83.68;99793.29;1743625;81;25692;-63
2022/11/17 04:21:24;;;;;;;87.08;36.93;;;;;;;4.83;83.87;99789.06;1735220;82;25755;-62
2022/11/17 04:23:51;;;;;;;89.07;38.30;;;;;;;4.79;83.71;99779.63;1736710;82;25720;-63
2022/11/17 04:29:03;;;;;;;78.62;34.67;;;;;;;4.74;84.05;99780.47;1736813;82;27640;-62
2022/11/17 04:31:31;;;;;;;75.75;32.28;;;;;;;4.73;84.29;99778.30;1736426;82;25861;-62
2022/11/17 04:34:03;;;;;;;81.50;35.03;;;;;;;4.75;84.19;99776.84;1736710;82;25776;-62
2022/11/17 04:36:43;;;;;;;87.72;35.00;;;;;;;4.73;84.53;99771.64;1736513;82;25777;-62
2022/11/17 04:39:14;;;;;;;83.15;33.45;;;;;;;4.76;84.17;99771.87;1736829;82;25864;-62
2022/11/17 04:41:56;;;;;;;79.80;33.58;;;;;;;4.76;84.31;99770.05;1736667;82;27472;-62
2022/11/17 04:44:26;;;;;;;79.00;34.45;;;;;;;4.78;84.11;99771.27;1734111;81;25803;-63
2022/11/17 04:46:54;;;;;;;75.90;34.20;;;;;;;4.80;84.35;99767.51;1733453;82;25923;-63
2022/11/17 04:49:23;;;;;;;78.72;35.90;;;;;;;4.81;84.46;99764.34;1733576;82;26018;-62
2022/11/17 04:51:51;;;;;;;82.75;35.03;;;;;;;4.85;84.51;99753.81;1733862;81;25737;-62
2022/11/17 04:54:26;;;;;;;74.40;33.23;;;;;;;4.88;84.45;99754.91;1720749;81;27467;-63
2022/11/17 04:56:52;;;;;;;83.15;33.53;;;;;;;4.90;84.36;99749.44;1713656;83;25826;-62
2022/11/17 04:59:20;;;;;;;74.00;33.23;;;;;;;4.92;84.48;99750.17;1715196;83;25827;-63
2022/11/17 05:01:47;;;;;;;71.85;31.80;;;;;;;4.98;84.73;99752.33;1715225;83;26589;-62
2022/11/17 05:05:03;;;;;;;81.47;34.80;;;;;;;5.05;84.59;99752.68;1715374;83;25747;-62
2022/11/17 05:06:46;;;;;;;79.22;35.00;;;;;;;5.07;84.62;99750.71;1677451;83;27588;-63
2022/11/17 05:09:16;;;;;;;74.67;31.12;;;;;;;5.12;84.70;99749.86;1715167;83;25819;-62
2022/11/17 05:14:29;;;;;;;74.27;34.60;;;;;;;5.24;84.93;99750.20;1715381;83;25799;-62
2022/11/17 05:17:07;;;;;;;77.08;34.48;;;;;;;5.30;84.91;99752.34;1715560;83;25773;-62
2022/11/17 05:19:43;;;;;;;73.92;34.27;;;;;;;5.32;84.94;99754.41;1749124;81;27599;-62
2022/11/17 05:24:59;;;;;;;73.57;32.75;;;;;;;5.44;84.92;99754.34;1721826;83;25870;-62
2022/11/17 05:27:26;;;;;;;77.97;32.17;;;;;;;5.42;84.22;99751.80;1721742;83;28041;-62
2022/11/17 05:29:53;;;;;;;68.90;29.82;;;;;;;5.41;84.20;99745.28;1721725;83;25758;-62
2022/11/17 05:32:20;;;;;;;70.37;31.40;;;;;;;5.46;84.25;99745.73;1721970;83;27496;-62
2022/11/17 05:34:47;;;;;;;72.17;31.57;;;;;;;5.48;84.30;99749.12;1721687;83;25690;-62
2022/11/17 05:37:14;;;;;;;74.53;32.78;;;;;;;5.42;84.21;99746.97;1721930;83;25764;-62
2022/11/17 05:39:40;;;;;;;67.20;30.95;;;;;;;5.43;84.33;99740.64;1721864;83;25850;-62
2022/11/17 05:42:07;;;;;;;75.17;31.82;;;;;;;5.43;84.22;99736.63;1721617;83;25713;-62
2022/11/17 05:44:34;;;;;;;64.92;30.62;;;;;;;5.44;84.46;99733.86;1721640;83;27537;-62
2022/11/17 05:47:00;;;;;;;71.95;30.80;;;;;;;5.44;84.18;99733.00;1721846;83;26049;-62
2022/11/17 05:49:27;;;;;;;74.42;31.35;;;;;;;5.40;84.17;99727.58;1721761;82;25682;-62
2022/11/17 05:51:54;;;;;;;72.92;32.45;;;;;;;5.38;84.29;99726.85;1721640;83;27924;-62
2022/11/17 05:54:20;;;;;;;66.77;32.23;;;;;;;5.39;84.59;99724.55;1749258;81;25755;-62
2022/11/17 05:56:55;;;;;;;65.22;31.55;;;;;;;5.41;84.82;99723.44;1759613;81;27480;-62
2022/11/17 05:59:49;;;;;;;65.72;31.37;;;;;;;5.40;84.91;99716.91;1759569;81;25742;-63
2022/11/17 06:02:32;;;;;;;66.33;29.15;;;;;;;5.36;84.93;99713.66;1759700;81;25751;-62
2022/11/17 06:04:59;;;;;;;58.52;28.80;;;;;;;5.32;85.14;99710.41;1759978;81;31965;-63
2022/11/17 06:07:26;;;;;;;64.20;31.05;;;;;;;5.30;85.13;99708.34;1759707;81;25690;-63
2022/11/17 06:09:53;;;;;;;64.70;29.55;;;;;;;5.28;85.38;99703.62;1759628;81;28554;-63
2022/11/17 06:12:20;;;;;;;63.70;29.50;;;;;;;5.29;85.44;99693.81;1759496;81;25859;-63
2022/11/17 06:14:47;;;;;;;65.70;32.50;;;;;;;5.29;85.25;99703.98;1759736;81;25782;-63
2022/11/17 06:17:31;;;;;;;66.20;31.57;;;;;;;5.33;85.55;99708.06;1759644;81;26455;-63
2022/11/17 06:20:05;;;;;;;67.65;32.63;;;;;;;5.36;85.62;99700.79;1731551;81;27327;-62
2022/11/17 06:22:33;;;;;;;61.98;29.72;;;;;;;5.39;85.61;99703.21;1730022;82;27455;-62
2022/11/17 06:25:02;;;;;;;68.75;30.32;;;;;;;5.41;85.60;99699.43;1729614;82;25822;-62
2022/11/17 06:27:31;;;;;;;68.07;30.17;;;;;;;5.45;85.27;99698.68;1727285;82;25728;-62
2022/11/17 06:30:02;;;;;;;66.95;29.32;;;;;;;5.44;85.44;99689.84;1731548;82;26721;-62
2022/11/17 06:32:31;;;;;;;64.87;30.37;;;;;;;5.41;85.35;99687.43;1730737;82;25745;-62
2022/11/17 06:35:00;;;;;;;66.92;31.30;;;;;;;5.38;85.47;99678.84;1733673;82;27607;-62
2022/11/17 06:37:27;;;;;;;66.87;29.42;;;;;;;5.40;85.94;99684.91;1706318;82;25867;-62
2022/11/17 06:39:53;;;;;;;62.67;29.85;;;;;;;5.40;86.06;99683.06;1734061;82;25563;-62
2022/11/17 06:43:02;;;;;;;65.57;30.27;;;;;;;5.42;86.07;99678.95;1733559;82;25801;-62
2022/11/17 06:44:49;;;;;;;69.20;30.85;;;;;;;5.41;86.17;99663.42;1715404;82;25781;-63
2022/11/17 06:47:15;;;;;;;67.22;33.02;;;;;;;5.44;86.13;99659.17;1705695;84;27480;-63
2022/11/17 06:49:42;;;;;;;69.92;30.20;;;;;;;5.48;86.08;99660.59;1706293;84;25735;-63
2022/11/17 06:52:09;;;;;;;64.77;29.40;;;;;;;5.53;86.29;99650.86;1705770;84;25792;-63
2022/11/17 06:54:36;;;;;;;65.67;31.52;;;;;;;5.56;85.97;99647.94;1739900;82;25895;-63
2022/11/17 06:57:03;;;;;;;66.07;29.05;;;;;;;5.61;86.16;99650.22;1746212;82;25761;-62
2022/11/17 06:59:30;;;;;;;63.50;29.92;;;;;;;5.64;86.03;99653.96;1746251;81;27450;-63
2022/11/17 07:01:58;;;;;;;67.40;28.83;;;;;;;5.67;86.28;99651.52;1746048;82;25715;-63
2022/11/17 07:04:25;;;;;;;70.35;28.92;;;;;;;5.68;86.10;99647.87;1746442;82;25718;-63
2022/11/17 07:06:52;;;;;;;59.35;28.57;;;;;;;5.66;85.86;99647.15;1746593;81;25788;-63
2022/11/17 07:09:18;;;;;;;59.58;28.57;;;;;;;5.69;86.10;99650.90;1746285;82;25700;-62
2022/11/17 07:11:45;;;;;;;56.15;25.82;;;;;;;5.70;86.14;99653.42;1746556;81;27656;-62
2022/11/17 07:14:12;;;;;;;61.95;29.02;;;;;;;5.77;86.35;99651.08;1746118;81;25822;-63
2022/11/17 07:16:42;;;;;;;68.15;29.30;;;;;;;5.75;86.12;99653.86;1729355;81;25791;-63
2022/11/17 07:19:11;;;;;;;56.65;26.62;;;;;;;5.78;86.28;99648.77;1738965;82;25908;-63
2022/11/17 07:21:40;;;;;;;56.83;26.90;;;;;;;5.82;86.49;99647.51;1702683;82;25818;-62
2022/11/17 07:24:08;;;;;;;54.98;25.77;;;;;;;5.84;86.49;99645.55;1698957;83;27709;-62
2022/11/17 07:26:34;;;;;;;51.33;24.98;;;;;;;5.86;86.75;99644.08;1698858;84;25741;-62
2022/11/17 07:29:01;;;;;;;45.35;22.87;;;;;;;5.85;86.84;99643.72;1699132;84;25706;-62
2022/11/17 07:31:28;;;;;;;50.50;24.43;;;;;;;5.85;86.72;99637.05;1699168;83;25966;-62
2022/11/17 07:33:54;;;;;;;49.77;24.77;;;;;;;5.89;86.79;99628.64;1699053;84;25707;-62
2022/11/17 07:36:21;;;;;;;53.63;24.98;;;;;;;5.90;86.76;99626.33;1705694;83;27473;-62
2022/11/17 07:38:48;;;;;;;48.38;22.62;;;;;;;5.91;86.82;99609.84;1717807;82;25714;-61
2022/11/17 07:41:14;;;;;;;47.60;23.15;;;;;;;5.92;87.03;99604.36;1724529;82;25811;-62
2022/11/17 07:43:41;;;;;;;48.92;21.95;;;;;;;5.94;86.96;99602.41;1721735;82;26763;-62
2022/11/17 07:46:11;;;;;;;53.48;22.67;;;;;;;5.97;87.06;99599.95;1738195;82;25735;-62
2022/11/17 07:48:39;;;;;;;51.28;22.27;;;;;;;5.99;87.16;99599.80;1737030;82;28187;-62
2022/11/17 07:51:06;;;;;;;45.58;22.82;;;;;;;6.00;87.17;99607.73;1741162;82;25787;-63
2022/11/17 07:53:34;;;;;;;48.92;23.52;;;;;;;6.02;87.37;99609.75;1737240;81;25802;-63
2022/11/17 07:56:08;;;;;;;52.53;23.67;;;;;;;6.03;87.42;99614.11;1730831;82;26599;-63
2022/11/17 07:58:35;;;;;;;;;;;;;;;6.05;87.34;99616.16;1733485;82;25794;-63
2022/11/17 08:01:14;;;;;;;49.10;22.20;;;;;;;6.08;87.39;99616.38;1730789;82;27523;-63
2022/11/17 08:03:42;;;;;;;57.60;25.15;;;;;;;6.02;87.42;99609.75;1730819;82;25713;-63
2022/11/17 08:06:09;;;;;;;57.78;23.75;;;;;;;6.04;87.55;99606.46;1730982;82;25709;-64
2022/11/17 08:08:37;;;;;;;59.95;24.95;;;;;;;6.05;87.78;99598.81;1730756;82;25783;-62
2022/11/17 08:11:11;;;;;;;56.90;26.37;;;;;;;6.08;87.62;99602.55;1731006;82;26337;-62
2022/11/17 08:13:39;;;;;;;54.60;25.70;;;;;;;6.08;87.62;99608.37;1731098;82;28141;-62
2022/11/17 08:16:08;;;;;;;64.20;26.70;;;;;;;6.08;87.34;99605.22;1730782;82;25844;-62
2022/11/17 08:18:37;;;;;;;59.18;27.42;;;;;;;6.11;87.33;99609.44;1745195;80;25755;-62
2022/11/17 08:21:12;;;;;;;63.08;26.55;;;;;;;6.10;87.49;99603.23;1742172;81;25829;-62
2022/11/17 08:23:40;;;;;;;61.37;27.20;;;;;;;6.11;87.42;99606.27;1728966;83;25731;-63
2022/11/17 08:26:10;;;;;;;66.87;28.12;;;;;;;6.13;87.41;99603.48;1726307;82;27453;-62
2022/11/17 08:28:37;;;;;;;57.05;27.45;;;;;;;6.14;87.45;99602.47;1725729;83;25734;-62
2022/11/17 08:31:06;;;;;;;61.28;27.00;;;;;;;6.18;87.08;99612.42;1725708;82;25767;-62
2022/11/17 08:33:33;;;;;;;59.67;25.92;;;;;;;6.20;87.42;99605.95;1735964;81;25738;-62
2022/11/17 08:36:03;;;;;;;60.25;26.27;;;;;;;6.25;87.27;99607.70;1760122;80;26341;-62
2022/11/17 08:38:30;;;;;;;57.60;27.82;;;;;;;6.28;87.20;99606.58;1754856;80;27453;-62
2022/11/17 08:41:06;;;;;;;62.80;30.32;;;;;;;6.31;87.14;99612.17;1751964;80;25677;-62
2022/11/17 08:43:34;;;;;;;58.38;26.48;;;;;;;6.30;87.14;99615.31;1752073;81;26130;-62
2022/11/17 08:46:01;;;;;;;55.17;25.80;;;;;;;6.28;86.92;99605.75;1750533;80;25815;-63
2022/11/17 08:48:28;;;;;;;57.62;25.10;;;;;;;6.27;87.03;99600.91;1742036;82;25786;-63
2022/11/17 08:50:55;;;;;;;50.30;23.80;;;;;;;6.24;86.71;99600.67;1742129;82;27447;-63
2022/11/17 08:53:23;;;;;;;48.58;23.07;;;;;;;6.24;86.83;99603.34;1711954;82;25709;-66
2022/11/17 08:55:50;;;;;;;54.25;23.62;;;;;;;6.22;87.12;99605.33;1726783;83;25818;-63
2022/11/17 08:58:17;;;;;;;49.42;23.50;;;;;;;6.23;87.31;99601.66;1726996;83;26417;-63
2022/11/17 09:00:45;;;;;;;51.35;22.80;;;;;;;6.21;87.24;99594.77;1726938;83;25749;-63
2022/11/17 09:03:12;;;;;;;50.88;21.30;;;;;;;6.21;87.28;99598.30;1726787;83;28457;-63
2022/11/17 09:05:49;;;;;;;54.55;25.15;;;;;;;6.22;87.46;99595.98;1726398;82;25430;-63
2022/11/17 09:08:13;;;;;;;55.30;23.67;;;;;;;6.25;87.32;99597.02;1725930;83;25794;-63
2022/11/17 09:10:41;;;;;;;49.77;22.27;;;;;;;6.26;87.44;99593.38;1726928;83;26447;-63
2022/11/17 09:13:08;;;;;;;43.95;21.20;;;;;;;6.27;87.40;99586.23;1726980;83;25775;-63
2022/11/17 09:15:34;;;;;;;50.10;21.35;;;;;;;6.28;87.53;99583.05;1726850;83;27472;-63
2022/11/17 09:18:02;;;;;;;47.70;21.77;;;;;;;6.27;87.68;99579.55;1726590;83;25800;-63
2022/11/17 09:20:30;;;;;;;45.75;21.80;;;;;;;6.24;87.53;99573.97;1718934;83;26471;-63
2022/11/17 09:23:01;;;;;;;44.55;22.98;;;;;;;6.24;87.46;99565.95;1712107;82;25815;-63
2022/11/17 09:25:32;;;;;;;43.80;20.92;;;;;;;6.29;87.57;99573.55;1712203;83;25819;-63
2022/11/17 09:28:00;;;;;;;43.60;20.12;;;;;;;6.31;87.66;99569.44;1698974;83;28341;-63
2022/11/17 09:30:27;;;;;;;44.85;20.43;;;;;;;6.32;87.56;99567.12;1706206;84;25808;-62
2022/11/17 09:32:54;;;;;;;49.23;21.95;;;;;;;6.34;87.81;99557.98;1706321;82;25802;-62
2022/11/17 09:35:21;;;;;;;45.65;21.02;;;;;;;6.41;87.80;99563.58;1706276;83;25798;-63
2022/11/17 09:37:48;;;;;;;46.08;21.20;;;;;;;6.46;87.73;99560.02;1706639;83;25808;-63
2022/11/17 09:40:19;;;;;;;40.83;21.42;;;;;;;6.54;87.89;99556.66;1706311;82;27472;-63
2022/11/17 09:42:47;;;;;;;41.92;20.88;;;;;;;6.58;87.74;99558.91;1706598;84;25805;-63
2022/11/17 09:45:26;;;;;;;41.13;20.88;;;;;;;6.63;87.74;99555.82;1706755;82;25721;-63
2022/11/17 09:48:19;;;;;;;38.53;19.98;;;;;;;6.67;87.66;99554.53;1737757;82;25914;-63
2022/11/17 09:50:48;;;;;;;38.80;19.97;;;;;;;6.66;87.36;99555.52;1736725;82;26450;-62
2022/11/17 09:53:26;;;;;;;43.83;21.20;;;;;;;6.66;87.28;99545.34;1737314;80;27596;-62
2022/11/17 09:55:57;;;;;;;44.58;20.97;;;;;;;6.68;87.29;99548.72;1732833;81;25732;-62
2022/11/17 09:58:50;;;;;;;42.00;22.45;;;;;;;6.69;87.21;99545.03;1732995;82;25768;-62
2022/11/17 10:01:21;;;;;;;41.30;20.25;;;;;;;6.69;87.12;99545.03;1732032;82;25795;-62
2022/11/17 10:03:50;;;;;;;42.13;21.23;;;;;;;6.71;87.00;99544.41;1732937;82;25740;-62
2022/11/17 10:06:27;;;;;;;43.35;21.55;;;;;;;6.70;86.76;99548.92;1732979;81;27534;-62
2022/11/17 10:09:26;;;;;;;43.10;22.75;;;;;;;6.68;86.82;99546.05;1748520;82;25494;-63
2022/11/17 10:11:57;;;;;;;38.48;20.75;;;;;;;6.67;86.80;99539.84;1748442;82;25801;-62
2022/11/17 10:14:28;;;;;;;39.88;19.73;;;;;;;6.68;86.89;99539.36;1748340;82;25764;-62
2022/11/17 10:16:57;;;;;;;37.48;19.90;;;;;;;6.68;86.65;99542.86;1748744;81;25782;-62
2022/11/17 10:19:31;;;;;;;38.88;19.27;;;;;;;6.68;86.57;99536.19;1753284;81;27590;-62
2022/11/17 10:22:06;;;;;;;38.70;20.08;;;;;;;6.71;86.74;99531.04;1724956;83;25815;-62
2022/11/17 10:24:46;;;;;;;41.85;20.35;;;;;;;6.71;86.53;99537.72;1724474;83;25880;-62
2022/11/17 10:27:32;;;;;;;36.28;18.32;;;;;;;6.80;87.29;99533.38;1698631;82;27533;-62
2022/11/17 10:30:22;;;;;;;32.95;17.37;;;;;;;6.84;86.86;99538.29;1724643;83;25741;-63
2022/11/17 10:32:53;;;;;;;30.37;16.90;;;;;;;6.81;86.35;99537.23;1724784;83;27470;-63
2022/11/17 10:35:33;;;;;;;34.10;18.25;;;;;;;6.78;86.08;99539.34;1724688;83;25808;-63
2022/11/17 10:38:12;;;;;;;30.50;16.17;;;;;;;6.80;86.69;99525.35;1724721;83;25760;-62
2022/11/17 10:40:44;;;;;;;28.65;15.18;;;;;;;6.81;86.63;99535.06;1724664;83;25792;-63
2022/11/17 10:43:17;;;;;;;28.87;15.08;;;;;;;6.86;86.79;99534.95;1725012;82;25832;-63
2022/11/17 10:45:50;;;;;;;27.58;14.83;;;;;;;6.87;86.85;99541.16;1724719;81;27484;-63
2022/11/17 10:48:38;;;;;;;28.02;13.55;;;;;;;6.86;86.94;99537.63;1724824;83;25680;-63
2022/11/17 10:51:18;;;;;;;24.52;13.98;;;;;;;6.85;87.21;99537.30;1725028;83;25666;-63
2022/11/17 10:54:05;;;;;;;25.43;13.72;;;;;;;6.81;87.51;99536.40;1734446;81;25769;-62
2022/11/17 10:56:39;;;;;;;29.87;14.98;;;;;;;6.83;87.72;99529.91;1753306;81;25715;-62
2022/11/17 10:59:17;;;;;;;25.32;13.68;;;;;;;6.79;87.62;99540.53;1753584;81;28287;-62
2022/11/17 11:01:49;;;;;;;28.70;14.65;;;;;;;6.83;88.28;99536.59;1753322;81;25921;-62
2022/11/17 11:04:40;;;;;;;23.95;13.90;;;;;;;6.84;88.00;99528.08;1753884;81;25731;-62
2022/11/17 11:07:15;;;;;;;24.07;13.40;;;;;;;6.82;88.10;99534.91;1753524;81;25912;-62
2022/11/17 11:10:01;;;;;;;21.62;11.83;;;;;;;6.85;88.55;99527.95;1753093;81;25763;-62
2022/11/17 11:13:03;;;;;;;19.12;11.53;;;;;;;6.84;88.02;99526.26;1753626;81;29669;-63
2022/11/17 11:15:34;;;;;;;15.65;10.30;;;;;;;6.82;87.65;99528.70;1753550;81;25770;-63
2022/11/17 11:18:03;;;;;;;14.75;8.55;;;;;;;6.79;87.38;99527.67;1751253;80;25794;-63
2022/11/17 11:20:52;;;;;;;16.23;9.10;;;;;;;6.77;87.33;99518.94;1742215;82;26096;-63
2022/11/17 11:23:47;;;;;;;14.85;9.43;;;;;;;6.73;87.08;99525.90;1749444;82;25819;-63
2022/11/17 11:27:09;;;;;;;18.27;9.50;;;;;;;6.69;87.23;99520.50;1749141;82;27473;-63
2022/11/17 11:30:04;;;;;;;16.62;10.08;;;;;;;6.68;87.30;99527.34;1749125;82;27290;-63
2022/11/17 11:33:06;;;;;;;15.43;9.55;;;;;;;6.61;86.74;99523.52;1749482;82;25708;-63
2022/11/17 11:36:13;;;;;;;16.48;9.30;;;;;;;6.50;87.00;99520.00;1748580;82;26124;-62
2022/11/17 11:38:56;;;;;;;15.30;8.60;;;;;;;6.45;87.30;99526.27;1748928;81;25819;-62
2022/11/17 11:42:06;;;;;;;12.40;8.40;;;;;;;6.40;87.53;99529.87;1733487;82;27472;-62
2022/11/17 11:45:14;;;;;;;11.93;8.23;;;;;;;6.35;87.58;99527.61;1749202;82;25646;-62
2022/11/17 11:48:06;;;;;;;13.85;7.72;;;;;;;6.34;87.85;99529.07;1747262;81;25752;-62
2022/11/17 11:50:44;;;;;;;13.22;8.05;;;;;;;6.29;87.73;99529.99;1710374;82;25974;-62
2022/11/17 11:53:31;;;;;;;12.03;8.13;;;;;;;6.34;88.10;99533.08;1754389;81;25794;-62
2022/11/17 11:56:13;;;;;;;12.78;6.97;;;;;;;6.38;88.25;99521.14;1754665;81;28133;-62
2022/11/17 11:58:59;;;;;;;12.55;6.70;;;;;;;6.37;88.24;99518.95;1754597;81;25730;-62
2022/11/17 12:01:31;;;;;;;9.93;6.72;;;;;;;6.36;87.98;99519.95;1754083;81;25816;-62
2022/11/17 12:04:31;;;;;;;14.80;6.40;;;;;;;6.36;88.34;99520.43;1754636;81;25903;-62
2022/11/17 12:07:10;;;;;;;12.78;7.30;;;;;;;6.35;88.23;99534.77;1754377;81;25785;-62
2022/11/17 12:10:13;;;;;;;9.43;5.70;;;;;;;6.34;88.13;99534.41;1755010;80;27327;-62
2022/11/17 12:12:43;;;;;;;10.78;5.92;;;;;;;6.36;88.30;99526.63;1746808;81;25488;-62
2022/11/17 12:15:25;;;;;;;12.33;6.97;;;;;;;6.41;88.21;99526.19;1739029;82;25678;-62
2022/11/17 12:18:05;;;;;;;10.05;5.97;;;;;;;6.46;87.87;99531.97;1722733;81;26829;-62